sensor_id;sensor_type;location;lat;lon;timestamp;temperature;humidity
6654;DHT22;3363;50.942;7.034;2022-11-25T00:02:04;7.60;99.90
6654;DHT22;3363;50.942;7.034;2022-11-25T00:04:32;7.60;99.90
6654;DHT22;3363;50.942;7.034;2022-11-25T00:07:01;7.60;99.90
6654;DHT22;3363;50.942;7.034;2022-11-25T00:09:27;7.60;99.90
6654;DHT22;3363;50.942;7.034;2022-11-25T00:11:54;7.60;99.90
6654;DHT22;3363;50.942;7.034;2022-11-25T00:14:21;7.60;99.90
6654;DHT22;3363;50.942;7.034;2022-11-25T00:16:47;7.50;99.90
6654;DHT22;3363;50.942;7.034;2022-11-25T00:19:14;7.50;99.90
6654;DHT22;3363;50.942;7.034;2022-11-25T00:21:42;7.50;99.90
6654;DHT22;3363;50.942;7.034;2022-11-25T00:24:09;7.50;99.90
6654;DHT22;3363;50.942;7.034;2022-11-25T00:26:38;7.50;99.90
6654;DHT22;3363;50.942;7.034;2022-11-25T00:29:05;7.50;99.90
6654;DHT22;3363;50.942;7.034;2022-11-25T00:31:33;7.40;99.90
6654;DHT22;3363;50.942;7.034;2022-11-25T00:34:00;7.40;99.90
6654;DHT22;3363;50.942;7.034;2022-11-25T00:36:28;7.40;99.90
6654;DHT22;3363;50.942;7.034;2022-11-25T00:38:57;7.40;99.90
6654;DHT22;3363;50.942;7.034;2022-11-25T00:41:24;7.50;99.90
6654;DHT22;3363;50.942;7.034;2022-11-25T00:44:08;7.40;99.90
6654;DHT22;3363;50.942;7.034;2022-11-25T00:46:52;7.40;99.90
6654;DHT22;3363;50.942;7.034;2022-11-25T00:49:19;7.40;99.90
6654;DHT22;3363;50.942;7.034;2022-11-25T00:51:45;7.40;99.90
6654;DHT22;3363;50.942;7.034;2022-11-25T00:54:14;7.40;99.90
6654;DHT22;3363;50.942;7.034;2022-11-25T00:56:40;7.50;99.90
6654;DHT22;3363;50.942;7.034;2022-11-25T00:59:07;7.50;99.90
6654;DHT22;3363;50.942;7.034;2022-11-25T01:01:34;7.50;99.90
6654;DHT22;3363;50.942;7.034;2022-11-25T01:04:01;7.40;99.90
6654;DHT22;3363;50.942;7.034;2022-11-25T01:06:28;7.50;99.90
6654;DHT22;3363;50.942;7.034;2022-11-25T01:08:54;7.50;99.90
6654;DHT22;3363;50.942;7.034;2022-11-25T01:11:22;7.50;99.90
6654;DHT22;3363;50.942;7.034;2022-11-25T01:13:49;7.50;99.90
6654;DHT22;3363;50.942;7.034;2022-11-25T01:16:19;7.50;99.90
6654;DHT22;3363;50.942;7.034;2022-11-25T01:18:46;7.50;99.90
6654;DHT22;3363;50.942;7.034;2022-11-25T01:21:13;7.50;99.90
6654;DHT22;3363;50.942;7.034;2022-11-25T01:23:41;7.50;99.90
6654;DHT22;3363;50.942;7.034;2022-11-25T01:26:09;7.60;99.90
6654;DHT22;3363;50.942;7.034;2022-11-25T01:28:38;7.60;99.90
6654;DHT22;3363;50.942;7.034;2022-11-25T01:31:06;7.60;99.90
6654;DHT22;3363;50.942;7.034;2022-11-25T01:33:33;7.60;99.90
6654;DHT22;3363;50.942;7.034;2022-11-25T01:36:00;7.60;99.90
6654;DHT22;3363;50.942;7.034;2022-11-25T01:38:28;7.60;99.90
6654;DHT22;3363;50.942;7.034;2022-11-25T01:40:54;7.60;99.90
6654;DHT22;3363;50.942;7.034;2022-11-25T01:43:21;7.60;99.90
6654;DHT22;3363;50.942;7.034;2022-11-25T01:45:49;7.60;99.90
6654;DHT22;3363;50.942;7.034;2022-11-25T01:48:17;7.60;99.90
6654;DHT22;3363;50.942;7.034;2022-11-25T01:50:45;7.60;99.90
6654;DHT22;3363;50.942;7.034;2022-11-25T01:53:12;7.60;99.90
6654;DHT22;3363;50.942;7.034;2022-11-25T01:55:42;7.60;99.90
6654;DHT22;3363;50.942;7.034;2022-11-25T01:58:10;7.60;99.90
6654;DHT22;3363;50.942;7.034;2022-11-25T02:00:38;7.60;99.90
6654;DHT22;3363;50.942;7.034;2022-11-25T02:03:06;7.60;99.90
6654;DHT22;3363;50.942;7.034;2022-11-25T02:05:35;7.60;99.90
6654;DHT22;3363;50.942;7.034;2022-11-25T02:08:04;7.60;99.90
6654;DHT22;3363;50.942;7.034;2022-11-25T02:10:31;7.60;99.90
6654;DHT22;3363;50.942;7.034;2022-11-25T02:12:59;7.60;99.90
6654;DHT22;3363;50.942;7.034;2022-11-25T02:15:26;7.60;99.90
6654;DHT22;3363;50.942;7.034;2022-11-25T02:17:54;7.60;99.90
6654;DHT22;3363;50.942;7.034;2022-11-25T02:20:22;7.60;99.90
6654;DHT22;3363;50.942;7.034;2022-11-25T02:22:52;7.60;99.90
6654;DHT22;3363;50.942;7.034;2022-11-25T02:25:23;7.60;99.90
6654;DHT22;3363;50.942;7.034;2022-11-25T02:27:51;7.60;99.90
6654;DHT22;3363;50.942;7.034;2022-11-25T02:30:19;7.50;99.90
6654;DHT22;3363;50.942;7.034;2022-11-25T02:32:46;7.60;99.90
6654;DHT22;3363;50.942;7.034;2022-11-25T02:35:26;7.60;99.90
6654;DHT22;3363;50.942;7.034;2022-11-25T02:37:54;7.60;99.90
6654;DHT22;3363;50.942;7.034;2022-11-25T02:40:23;7.60;99.90
6654;DHT22;3363;50.942;7.034;2022-11-25T02:42:51;7.60;99.90
6654;DHT22;3363;50.942;7.034;2022-11-25T02:45:18;7.60;99.90
6654;DHT22;3363;50.942;7.034;2022-11-25T02:47:48;7.60;99.90
6654;DHT22;3363;50.942;7.034;2022-11-25T02:50:14;7.60;99.90
6654;DHT22;3363;50.942;7.034;2022-11-25T02:52:41;7.50;99.90
6654;DHT22;3363;50.942;7.034;2022-11-25T02:55:09;7.60;99.90
6654;DHT22;3363;50.942;7.034;2022-11-25T02:57:37;7.60;99.90
6654;DHT22;3363;50.942;7.034;2022-11-25T03:00:04;7.50;99.90
6654;DHT22;3363;50.942;7.034;2022-11-25T03:02:31;7.60;99.90
6654;DHT22;3363;50.942;7.034;2022-11-25T03:04:58;7.60;99.90
6654;DHT22;3363;50.942;7.034;2022-11-25T03:07:24;7.50;99.90
6654;DHT22;3363;50.942;7.034;2022-11-25T03:09:51;7.60;99.90
6654;DHT22;3363;50.942;7.034;2022-11-25T03:12:18;7.60;99.90
6654;DHT22;3363;50.942;7.034;2022-11-25T03:14:46;7.60;99.90
6654;DHT22;3363;50.942;7.034;2022-11-25T03:17:12;7.60;99.90
6654;DHT22;3363;50.942;7.034;2022-11-25T03:19:39;7.60;99.90
6654;DHT22;3363;50.942;7.034;2022-11-25T03:22:06;7.60;99.90
6654;DHT22;3363;50.942;7.034;2022-11-25T03:24:33;7.50;99.90
6654;DHT22;3363;50.942;7.034;2022-11-25T03:26:59;7.60;99.90
6654;DHT22;3363;50.942;7.034;2022-11-25T03:29:26;7.60;99.90
6654;DHT22;3363;50.942;7.034;2022-11-25T03:31:54;7.60;99.90
6654;DHT22;3363;50.942;7.034;2022-11-25T03:34:21;7.60;99.90
6654;DHT22;3363;50.942;7.034;2022-11-25T03:36:47;7.60;99.90
6654;DHT22;3363;50.942;7.034;2022-11-25T03:39:14;7.60;99.90
6654;DHT22;3363;50.942;7.034;2022-11-25T03:41:41;7.60;99.90
6654;DHT22;3363;50.942;7.034;2022-11-25T03:44:07;7.60;99.90
6654;DHT22;3363;50.942;7.034;2022-11-25T03:46:34;7.60;99.90
6654;DHT22;3363;50.942;7.034;2022-11-25T03:49:02;7.60;99.90
6654;DHT22;3363;50.942;7.034;2022-11-25T03:51:29;7.60;99.90
6654;DHT22;3363;50.942;7.034;2022-11-25T03:53:55;7.60;99.90
6654;DHT22;3363;50.942;7.034;2022-11-25T03:56:22;7.60;99.90
6654;DHT22;3363;50.942;7.034;2022-11-25T03:58:49;7.60;99.90
6654;DHT22;3363;50.942;7.034;2022-11-25T04:01:15;7.60;99.90
6654;DHT22;3363;50.942;7.034;2022-11-25T04:03:42;7.60;99.90
6654;DHT22;3363;50.942;7.034;2022-11-25T04:06:10;7.60;99.90
6654;DHT22;3363;50.942;7.034;2022-11-25T04:08:36;7.70;99.90
6654;DHT22;3363;50.942;7.034;2022-11-25T04:11:03;7.70;99.90
6654;DHT22;3363;50.942;7.034;2022-11-25T04:13:30;7.70;99.90
6654;DHT22;3363;50.942;7.034;2022-11-25T04:15:55;7.70;99.90
6654;DHT22;3363;50.942;7.034;2022-11-25T04:18:22;7.80;99.90
6654;DHT22;3363;50.942;7.034;2022-11-25T04:20:49;7.80;99.90
6654;DHT22;3363;50.942;7.034;2022-11-25T04:23:17;7.80;99.90
6654;DHT22;3363;50.942;7.034;2022-11-25T04:25:43;7.80;99.90
6654;DHT22;3363;50.942;7.034;2022-11-25T04:28:10;7.80;99.90
6654;DHT22;3363;50.942;7.034;2022-11-25T04:30:36;7.80;99.90
6654;DHT22;3363;50.942;7.034;2022-11-25T04:33:03;7.80;99.90
6654;DHT22;3363;50.942;7.034;2022-11-25T04:35:30;7.90;99.90
6654;DHT22;3363;50.942;7.034;2022-11-25T04:37:57;7.90;99.90
6654;DHT22;3363;50.942;7.034;2022-11-25T04:40:24;7.90;99.90
6654;DHT22;3363;50.942;7.034;2022-11-25T04:42:51;7.90;99.90
6654;DHT22;3363;50.942;7.034;2022-11-25T04:45:18;7.80;99.90
6654;DHT22;3363;50.942;7.034;2022-11-25T04:47:44;7.90;99.90
6654;DHT22;3363;50.942;7.034;2022-11-25T04:50:12;7.90;99.90
6654;DHT22;3363;50.942;7.034;2022-11-25T04:52:39;7.90;99.90
6654;DHT22;3363;50.942;7.034;2022-11-25T04:55:06;7.90;99.90
6654;DHT22;3363;50.942;7.034;2022-11-25T04:57:34;7.90;99.90
6654;DHT22;3363;50.942;7.034;2022-11-25T05:00:01;7.80;99.90
6654;DHT22;3363;50.942;7.034;2022-11-25T05:02:27;7.80;99.90
6654;DHT22;3363;50.942;7.034;2022-11-25T05:04:54;7.80;99.90
6654;DHT22;3363;50.942;7.034;2022-11-25T05:07:23;7.80;99.90
6654;DHT22;3363;50.942;7.034;2022-11-25T05:09:49;7.80;99.90
6654;DHT22;3363;50.942;7.034;2022-11-25T05:12:17;7.80;99.90
6654;DHT22;3363;50.942;7.034;2022-11-25T05:14:45;7.70;99.90
6654;DHT22;3363;50.942;7.034;2022-11-25T05:17:12;7.70;99.90
6654;DHT22;3363;50.942;7.034;2022-11-25T05:19:39;7.70;99.90
6654;DHT22;3363;50.942;7.034;2022-11-25T05:22:08;7.80;99.90
6654;DHT22;3363;50.942;7.034;2022-11-25T05:24:35;7.80;99.90
6654;DHT22;3363;50.942;7.034;2022-11-25T05:27:02;7.70;99.90
6654;DHT22;3363;50.942;7.034;2022-11-25T05:29:28;7.70;99.90
6654;DHT22;3363;50.942;7.034;2022-11-25T05:31:56;7.70;99.90
6654;DHT22;3363;50.942;7.034;2022-11-25T05:34:23;7.70;99.90
6654;DHT22;3363;50.942;7.034;2022-11-25T05:36:50;7.70;99.90
6654;DHT22;3363;50.942;7.034;2022-11-25T05:39:16;7.70;99.90
6654;DHT22;3363;50.942;7.034;2022-11-25T05:41:43;7.70;99.90
6654;DHT22;3363;50.942;7.034;2022-11-25T05:44:10;7.70;99.90
6654;DHT22;3363;50.942;7.034;2022-11-25T05:46:36;7.70;99.90
6654;DHT22;3363;50.942;7.034;2022-11-25T05:49:04;7.70;99.90
6654;DHT22;3363;50.942;7.034;2022-11-25T05:51:31;7.70;99.90
6654;DHT22;3363;50.942;7.034;2022-11-25T05:53:58;7.70;99.90
6654;DHT22;3363;50.942;7.034;2022-11-25T05:56:25;7.70;99.90
6654;DHT22;3363;50.942;7.034;2022-11-25T05:58:51;7.70;99.90
6654;DHT22;3363;50.942;7.034;2022-11-25T06:01:19;7.70;99.90
6654;DHT22;3363;50.942;7.034;2022-11-25T06:03:46;7.70;99.90
6654;DHT22;3363;50.942;7.034;2022-11-25T06:06:14;7.70;99.90
6654;DHT22;3363;50.942;7.034;2022-11-25T06:08:41;7.70;99.90
6654;DHT22;3363;50.942;7.034;2022-11-25T06:11:08;7.70;99.90
6654;DHT22;3363;50.942;7.034;2022-11-25T06:13:36;7.70;99.90
6654;DHT22;3363;50.942;7.034;2022-11-25T06:16:06;7.80;99.90
6654;DHT22;3363;50.942;7.034;2022-11-25T06:18:34;7.70;99.90
6654;DHT22;3363;50.942;7.034;2022-11-25T06:21:00;7.70;99.90
6654;DHT22;3363;50.942;7.034;2022-11-25T06:23:28;7.80;99.90
6654;DHT22;3363;50.942;7.034;2022-11-25T06:26:01;7.80;99.90
6654;DHT22;3363;50.942;7.034;2022-11-25T06:28:27;7.80;99.90
6654;DHT22;3363;50.942;7.034;2022-11-25T06:30:54;7.80;99.90
6654;DHT22;3363;50.942;7.034;2022-11-25T06:33:21;7.80;99.90
6654;DHT22;3363;50.942;7.034;2022-11-25T06:35:47;7.80;99.90
6654;DHT22;3363;50.942;7.034;2022-11-25T06:38:14;7.80;99.90
6654;DHT22;3363;50.942;7.034;2022-11-25T06:40:42;7.80;99.90
6654;DHT22;3363;50.942;7.034;2022-11-25T06:43:08;7.70;99.90
6654;DHT22;3363;50.942;7.034;2022-11-25T06:45:35;7.80;99.90
6654;DHT22;3363;50.942;7.034;2022-11-25T06:48:02;7.80;99.90
6654;DHT22;3363;50.942;7.034;2022-11-25T06:50:29;7.80;99.90
6654;DHT22;3363;50.942;7.034;2022-11-25T06:52:55;7.80;99.90
6654;DHT22;3363;50.942;7.034;2022-11-25T06:55:22;7.80;99.90
6654;DHT22;3363;50.942;7.034;2022-11-25T06:57:50;7.80;99.90
6654;DHT22;3363;50.942;7.034;2022-11-25T07:00:17;7.80;99.90
6654;DHT22;3363;50.942;7.034;2022-11-25T07:02:44;7.80;99.90
6654;DHT22;3363;50.942;7.034;2022-11-25T07:05:11;7.70;99.90
6654;DHT22;3363;50.942;7.034;2022-11-25T07:07:38;7.70;99.90
6654;DHT22;3363;50.942;7.034;2022-11-25T07:10:05;7.80;99.90
6654;DHT22;3363;50.942;7.034;2022-11-25T07:12:32;7.70;99.90
6654;DHT22;3363;50.942;7.034;2022-11-25T07:15:00;7.80;99.90
6654;DHT22;3363;50.942;7.034;2022-11-25T07:17:26;7.80;99.90
6654;DHT22;3363;50.942;7.034;2022-11-25T07:19:53;7.80;99.90
6654;DHT22;3363;50.942;7.034;2022-11-25T07:22:20;7.70;99.90
6654;DHT22;3363;50.942;7.034;2022-11-25T07:24:47;7.80;99.90
6654;DHT22;3363;50.942;7.034;2022-11-25T07:27:13;7.80;99.90
6654;DHT22;3363;50.942;7.034;2022-11-25T07:29:40;7.80;99.90
6654;DHT22;3363;50.942;7.034;2022-11-25T07:32:08;7.70;99.90
6654;DHT22;3363;50.942;7.034;2022-11-25T07:34:35;7.70;99.90
6654;DHT22;3363;50.942;7.034;2022-11-25T07:37:01;7.70;99.90
6654;DHT22;3363;50.942;7.034;2022-11-25T07:39:28;7.70;99.90
6654;DHT22;3363;50.942;7.034;2022-11-25T07:41:55;7.70;99.90
6654;DHT22;3363;50.942;7.034;2022-11-25T07:44:21;7.70;99.90
6654;DHT22;3363;50.942;7.034;2022-11-25T07:46:49;7.60;99.90
6654;DHT22;3363;50.942;7.034;2022-11-25T07:49:18;7.60;99.90
6654;DHT22;3363;50.942;7.034;2022-11-25T07:51:46;7.60;99.90
6654;DHT22;3363;50.942;7.034;2022-11-25T07:54:13;7.60;99.90
6654;DHT22;3363;50.942;7.034;2022-11-25T07:56:41;7.60;99.90
6654;DHT22;3363;50.942;7.034;2022-11-25T07:59:09;7.60;99.90
6654;DHT22;3363;50.942;7.034;2022-11-25T08:01:37;7.60;99.90
6654;DHT22;3363;50.942;7.034;2022-11-25T08:04:04;7.70;99.90
6654;DHT22;3363;50.942;7.034;2022-11-25T08:06:35;7.70;99.90
6654;DHT22;3363;50.942;7.034;2022-11-25T08:09:02;7.70;99.90
6654;DHT22;3363;50.942;7.034;2022-11-25T08:11:29;7.70;99.90
6654;DHT22;3363;50.942;7.034;2022-11-25T08:13:56;7.60;99.90
6654;DHT22;3363;50.942;7.034;2022-11-25T08:16:23;7.60;99.90
6654;DHT22;3363;50.942;7.034;2022-11-25T08:18:52;7.60;99.90
6654;DHT22;3363;50.942;7.034;2022-11-25T08:21:19;7.60;99.90
6654;DHT22;3363;50.942;7.034;2022-11-25T08:23:47;7.60;99.90
6654;DHT22;3363;50.942;7.034;2022-11-25T08:26:17;7.60;99.90
6654;DHT22;3363;50.942;7.034;2022-11-25T08:28:44;7.60;99.90
6654;DHT22;3363;50.942;7.034;2022-11-25T08:31:12;7.60;99.90
6654;DHT22;3363;50.942;7.034;2022-11-25T08:33:39;7.60;99.90
6654;DHT22;3363;50.942;7.034;2022-11-25T08:36:06;7.70;99.90
6654;DHT22;3363;50.942;7.034;2022-11-25T08:38:33;7.70;99.90
6654;DHT22;3363;50.942;7.034;2022-11-25T08:41:01;7.70;99.90
6654;DHT22;3363;50.942;7.034;2022-11-25T08:43:28;7.70;99.90
6654;DHT22;3363;50.942;7.034;2022-11-25T08:45:55;7.70;99.90
6654;DHT22;3363;50.942;7.034;2022-11-25T08:48:22;7.70;99.90
6654;DHT22;3363;50.942;7.034;2022-11-25T08:50:49;7.70;99.90
6654;DHT22;3363;50.942;7.034;2022-11-25T08:53:16;7.70;99.90
6654;DHT22;3363;50.942;7.034;2022-11-25T08:55:43;7.80;99.90
6654;DHT22;3363;50.942;7.034;2022-11-25T08:58:11;7.80;99.90
6654;DHT22;3363;50.942;7.034;2022-11-25T09:00:38;7.80;99.90
6654;DHT22;3363;50.942;7.034;2022-11-25T09:03:05;7.80;99.90
6654;DHT22;3363;50.942;7.034;2022-11-25T09:05:32;7.80;99.90
6654;DHT22;3363;50.942;7.034;2022-11-25T09:08:00;7.80;99.90
6654;DHT22;3363;50.942;7.034;2022-11-25T09:10:27;7.80;99.90
6654;DHT22;3363;50.942;7.034;2022-11-25T09:12:53;7.90;99.90
6654;DHT22;3363;50.942;7.034;2022-11-25T09:15:21;8.00;99.90
6654;DHT22;3363;50.942;7.034;2022-11-25T09:17:48;8.10;99.90
6654;DHT22;3363;50.942;7.034;2022-11-25T09:20:15;8.10;99.90
6654;DHT22;3363;50.942;7.034;2022-11-25T09:22:42;8.10;99.90
6654;DHT22;3363;50.942;7.034;2022-11-25T09:25:08;8.20;99.90
6654;DHT22;3363;50.942;7.034;2022-11-25T09:27:35;8.30;99.90
6654;DHT22;3363;50.942;7.034;2022-11-25T09:30:02;8.40;99.90
6654;DHT22;3363;50.942;7.034;2022-11-25T09:32:30;8.40;99.90
6654;DHT22;3363;50.942;7.034;2022-11-25T09:34:57;8.50;99.90
6654;DHT22;3363;50.942;7.034;2022-11-25T09:37:23;8.60;99.90
6654;DHT22;3363;50.942;7.034;2022-11-25T09:39:50;8.70;99.90
6654;DHT22;3363;50.942;7.034;2022-11-25T09:42:24;8.80;99.90
6654;DHT22;3363;50.942;7.034;2022-11-25T09:45:12;8.80;99.90
6654;DHT22;3363;50.942;7.034;2022-11-25T09:48:02;8.90;99.90
6654;DHT22;3363;50.942;7.034;2022-11-25T09:50:34;9.00;99.90
6654;DHT22;3363;50.942;7.034;2022-11-25T09:53:09;9.00;99.90
6654;DHT22;3363;50.942;7.034;2022-11-25T09:55:41;9.10;99.90
6654;DHT22;3363;50.942;7.034;2022-11-25T09:58:12;9.20;99.90
6654;DHT22;3363;50.942;7.034;2022-11-25T10:00:42;9.20;99.90
6654;DHT22;3363;50.942;7.034;2022-11-25T10:03:14;9.40;99.90
6654;DHT22;3363;50.942;7.034;2022-11-25T10:05:43;9.60;99.90
6654;DHT22;3363;50.942;7.034;2022-11-25T10:08:13;9.70;99.90
6654;DHT22;3363;50.942;7.034;2022-11-25T10:10:42;9.80;99.90
6654;DHT22;3363;50.942;7.034;2022-11-25T10:13:13;9.80;99.90
6654;DHT22;3363;50.942;7.034;2022-11-25T10:15:42;9.90;99.90
6654;DHT22;3363;50.942;7.034;2022-11-25T10:18:11;9.80;99.90
6654;DHT22;3363;50.942;7.034;2022-11-25T10:20:40;9.90;99.90
6654;DHT22;3363;50.942;7.034;2022-11-25T10:23:09;9.90;99.90
6654;DHT22;3363;50.942;7.034;2022-11-25T10:25:38;9.90;99.90
6654;DHT22;3363;50.942;7.034;2022-11-25T10:28:09;10.00;99.90
6654;DHT22;3363;50.942;7.034;2022-11-25T10:30:39;9.90;99.90
6654;DHT22;3363;50.942;7.034;2022-11-25T10:33:10;9.90;99.90
6654;DHT22;3363;50.942;7.034;2022-11-25T10:35:39;9.90;99.90
6654;DHT22;3363;50.942;7.034;2022-11-25T10:38:10;9.90;99.90
6654;DHT22;3363;50.942;7.034;2022-11-25T10:40:37;9.80;99.90
6654;DHT22;3363;50.942;7.034;2022-11-25T10:43:08;9.80;99.90
6654;DHT22;3363;50.942;7.034;2022-11-25T10:45:38;9.80;99.90
6654;DHT22;3363;50.942;7.034;2022-11-25T10:48:09;9.70;99.90
6654;DHT22;3363;50.942;7.034;2022-11-25T10:50:41;9.70;99.90
6654;DHT22;3363;50.942;7.034;2022-11-25T10:53:15;9.70;99.90
6654;DHT22;3363;50.942;7.034;2022-11-25T10:55:55;9.60;99.90
6654;DHT22;3363;50.942;7.034;2022-11-25T10:58:25;9.70;99.90
6654;DHT22;3363;50.942;7.034;2022-11-25T11:01:00;9.70;99.90
6654;DHT22;3363;50.942;7.034;2022-11-25T11:03:27;9.60;99.90
6654;DHT22;3363;50.942;7.034;2022-11-25T11:05:53;9.60;99.90
6654;DHT22;3363;50.942;7.034;2022-11-25T11:08:22;9.60;99.90
6654;DHT22;3363;50.942;7.034;2022-11-25T11:13:30;9.60;99.90
6654;DHT22;3363;50.942;7.034;2022-11-25T11:15:58;9.60;99.90
6654;DHT22;3363;50.942;7.034;2022-11-25T11:18:26;9.70;99.90
6654;DHT22;3363;50.942;7.034;2022-11-25T11:20:53;9.70;99.90
6654;DHT22;3363;50.942;7.034;2022-11-25T11:23:22;9.80;99.90
6654;DHT22;3363;50.942;7.034;2022-11-25T11:25:56;9.80;99.90
6654;DHT22;3363;50.942;7.034;2022-11-25T11:28:24;9.60;99.90
6654;DHT22;3363;50.942;7.034;2022-11-25T11:30:52;9.60;99.90
6654;DHT22;3363;50.942;7.034;2022-11-25T11:33:27;9.60;99.90
6654;DHT22;3363;50.942;7.034;2022-11-25T11:35:54;9.70;99.90
6654;DHT22;3363;50.942;7.034;2022-11-25T11:38:30;9.70;99.90
6654;DHT22;3363;50.942;7.034;2022-11-25T11:41:01;9.70;99.90
6654;DHT22;3363;50.942;7.034;2022-11-25T11:43:38;9.70;99.90
6654;DHT22;3363;50.942;7.034;2022-11-25T11:46:10;9.70;99.90
6654;DHT22;3363;50.942;7.034;2022-11-25T11:48:39;9.60;99.90
6654;DHT22;3363;50.942;7.034;2022-11-25T11:51:10;9.70;99.90
6654;DHT22;3363;50.942;7.034;2022-11-25T11:53:42;9.70;99.90
6654;DHT22;3363;50.942;7.034;2022-11-25T11:56:13;9.70;99.90
6654;DHT22;3363;50.942;7.034;2022-11-25T11:58:46;9.80;99.90
6654;DHT22;3363;50.942;7.034;2022-11-25T12:01:19;9.90;99.90
6654;DHT22;3363;50.942;7.034;2022-11-25T12:03:54;10.10;99.90
6654;DHT22;3363;50.942;7.034;2022-11-25T12:06:22;10.00;99.90
6654;DHT22;3363;50.942;7.034;2022-11-25T12:08:53;10.00;99.90
6654;DHT22;3363;50.942;7.034;2022-11-25T12:11:24;10.10;99.90
6654;DHT22;3363;50.942;7.034;2022-11-25T12:13:54;10.00;99.90
6654;DHT22;3363;50.942;7.034;2022-11-25T12:16:25;10.00;99.90
6654;DHT22;3363;50.942;7.034;2022-11-25T12:18:54;9.90;99.90
6654;DHT22;3363;50.942;7.034;2022-11-25T12:21:26;10.10;99.90
6654;DHT22;3363;50.942;7.034;2022-11-25T12:23:57;10.10;99.90
6654;DHT22;3363;50.942;7.034;2022-11-25T12:26:29;10.10;99.90
6654;DHT22;3363;50.942;7.034;2022-11-25T12:28:56;10.10;99.90
6654;DHT22;3363;50.942;7.034;2022-11-25T12:31:25;10.20;99.90
6654;DHT22;3363;50.942;7.034;2022-11-25T12:33:56;10.30;99.90
6654;DHT22;3363;50.942;7.034;2022-11-25T12:36:27;10.30;99.90
6654;DHT22;3363;50.942;7.034;2022-11-25T12:38:59;10.30;99.90
6654;DHT22;3363;50.942;7.034;2022-11-25T12:41:27;10.20;99.90
6654;DHT22;3363;50.942;7.034;2022-11-25T12:43:57;10.20;99.90
6654;DHT22;3363;50.942;7.034;2022-11-25T12:46:27;10.20;99.90
6654;DHT22;3363;50.942;7.034;2022-11-25T12:48:55;10.30;99.90
6654;DHT22;3363;50.942;7.034;2022-11-25T12:51:26;10.40;99.90
6654;DHT22;3363;50.942;7.034;2022-11-25T12:54:00;10.40;99.90
6654;DHT22;3363;50.942;7.034;2022-11-25T12:56:36;10.60;99.90
6654;DHT22;3363;50.942;7.034;2022-11-25T12:59:13;10.40;99.90
6654;DHT22;3363;50.942;7.034;2022-11-25T13:01:48;10.40;99.90
6654;DHT22;3363;50.942;7.034;2022-11-25T13:07:22;10.30;99.90
6654;DHT22;3363;50.942;7.034;2022-11-25T13:12:39;10.50;99.90
6654;DHT22;3363;50.942;7.034;2022-11-25T13:17:58;10.40;99.90
6654;DHT22;3363;50.942;7.034;2022-11-25T13:20:41;10.40;99.90
6654;DHT22;3363;50.942;7.034;2022-11-25T13:23:19;10.50;99.90
6654;DHT22;3363;50.942;7.034;2022-11-25T13:25:48;10.40;99.90
6654;DHT22;3363;50.942;7.034;2022-11-25T13:28:28;10.40;99.90
6654;DHT22;3363;50.942;7.034;2022-11-25T13:30:55;10.40;99.90
6654;DHT22;3363;50.942;7.034;2022-11-25T13:33:54;10.30;99.90
6654;DHT22;3363;50.942;7.034;2022-11-25T13:36:22;10.50;99.90
6654;DHT22;3363;50.942;7.034;2022-11-25T13:39:02;10.40;99.90
6654;DHT22;3363;50.942;7.034;2022-11-25T13:41:37;10.50;99.90
6654;DHT22;3363;50.942;7.034;2022-11-25T13:44:11;10.40;99.90
6654;DHT22;3363;50.942;7.034;2022-11-25T13:46:40;10.50;99.90
6654;DHT22;3363;50.942;7.034;2022-11-25T13:49:19;10.40;99.90
6654;DHT22;3363;50.942;7.034;2022-11-25T13:51:47;10.40;99.90
6654;DHT22;3363;50.942;7.034;2022-11-25T13:54:14;10.40;99.90
6654;DHT22;3363;50.942;7.034;2022-11-25T13:56:43;10.40;99.90
6654;DHT22;3363;50.942;7.034;2022-11-25T13:59:34;10.40;99.90
6654;DHT22;3363;50.942;7.034;2022-11-25T14:04:48;10.40;99.90
6654;DHT22;3363;50.942;7.034;2022-11-25T14:07:21;10.40;99.90
6654;DHT22;3363;50.942;7.034;2022-11-25T14:09:58;10.30;99.90
6654;DHT22;3363;50.942;7.034;2022-11-25T14:12:30;10.40;97.90
6654;DHT22;3363;50.942;7.034;2022-11-25T14:15:09;10.40;98.40
6654;DHT22;3363;50.942;7.034;2022-11-25T14:18:07;10.40;97.80
6654;DHT22;3363;50.942;7.034;2022-11-25T14:20:38;10.40;97.30
6654;DHT22;3363;50.942;7.034;2022-11-25T14:26:00;10.40;96.20
6654;DHT22;3363;50.942;7.034;2022-11-25T14:28:29;10.50;97.30
6654;DHT22;3363;50.942;7.034;2022-11-25T14:31:02;10.40;99.90
6654;DHT22;3363;50.942;7.034;2022-11-25T14:33:31;10.40;97.60
6654;DHT22;3363;50.942;7.034;2022-11-25T14:36:00;10.40;97.80
6654;DHT22;3363;50.942;7.034;2022-11-25T14:38:31;10.40;99.40
6654;DHT22;3363;50.942;7.034;2022-11-25T14:41:03;10.40;98.70
6654;DHT22;3363;50.942;7.034;2022-11-25T14:43:34;10.40;99.50
6654;DHT22;3363;50.942;7.034;2022-11-25T14:46:12;10.30;99.90
6654;DHT22;3363;50.942;7.034;2022-11-25T14:48:40;10.20;99.90
6654;DHT22;3363;50.942;7.034;2022-11-25T14:51:07;10.20;99.90
6654;DHT22;3363;50.942;7.034;2022-11-25T14:53:37;10.20;99.90
6654;DHT22;3363;50.942;7.034;2022-11-25T14:56:04;10.20;99.90
6654;DHT22;3363;50.942;7.034;2022-11-25T14:58:31;10.20;99.90
6654;DHT22;3363;50.942;7.034;2022-11-25T15:00:58;10.20;99.90
6654;DHT22;3363;50.942;7.034;2022-11-25T15:03:27;10.20;99.90
6654;DHT22;3363;50.942;7.034;2022-11-25T15:05:54;10.20;99.90
6654;DHT22;3363;50.942;7.034;2022-11-25T15:08:22;10.20;99.90
6654;DHT22;3363;50.942;7.034;2022-11-25T15:10:51;10.10;99.90
6654;DHT22;3363;50.942;7.034;2022-11-25T15:13:24;10.10;99.90
6654;DHT22;3363;50.942;7.034;2022-11-25T15:15:52;10.10;99.90
6654;DHT22;3363;50.942;7.034;2022-11-25T15:18:20;10.00;99.90
6654;DHT22;3363;50.942;7.034;2022-11-25T15:20:49;10.00;99.90
6654;DHT22;3363;50.942;7.034;2022-11-25T15:23:19;10.00;99.90
6654;DHT22;3363;50.942;7.034;2022-11-25T15:25:49;10.00;99.90
6654;DHT22;3363;50.942;7.034;2022-11-25T15:28:16;10.00;99.90
6654;DHT22;3363;50.942;7.034;2022-11-25T15:30:44;10.00;99.90
6654;DHT22;3363;50.942;7.034;2022-11-25T15:33:20;10.00;99.90
6654;DHT22;3363;50.942;7.034;2022-11-25T15:35:49;10.00;99.90
6654;DHT22;3363;50.942;7.034;2022-11-25T15:38:16;9.90;99.90
6654;DHT22;3363;50.942;7.034;2022-11-25T15:40:43;10.00;99.90
6654;DHT22;3363;50.942;7.034;2022-11-25T15:43:20;10.00;99.90
6654;DHT22;3363;50.942;7.034;2022-11-25T15:45:48;10.10;99.90
6654;DHT22;3363;50.942;7.034;2022-11-25T15:48:17;10.10;99.90
6654;DHT22;3363;50.942;7.034;2022-11-25T15:50:46;10.00;99.90
6654;DHT22;3363;50.942;7.034;2022-11-25T15:53:19;10.00;99.90
6654;DHT22;3363;50.942;7.034;2022-11-25T15:55:48;10.00;99.90
6654;DHT22;3363;50.942;7.034;2022-11-25T15:58:16;10.00;99.90
6654;DHT22;3363;50.942;7.034;2022-11-25T16:00:57;10.00;99.90
6654;DHT22;3363;50.942;7.034;2022-11-25T16:03:24;9.90;99.90
6654;DHT22;3363;50.942;7.034;2022-11-25T16:05:51;10.00;99.90
6654;DHT22;3363;50.942;7.034;2022-11-25T16:08:28;10.00;99.90
6654;DHT22;3363;50.942;7.034;2022-11-25T16:10:56;10.00;99.90
6654;DHT22;3363;50.942;7.034;2022-11-25T16:13:27;10.00;99.90
6654;DHT22;3363;50.942;7.034;2022-11-25T16:15:54;10.00;99.90
6654;DHT22;3363;50.942;7.034;2022-11-25T16:18:23;10.00;99.90
6654;DHT22;3363;50.942;7.034;2022-11-25T16:20:52;10.00;99.90
6654;DHT22;3363;50.942;7.034;2022-11-25T16:23:19;9.90;99.90
6654;DHT22;3363;50.942;7.034;2022-11-25T16:25:49;9.90;99.90
6654;DHT22;3363;50.942;7.034;2022-11-25T16:28:19;9.90;99.90
6654;DHT22;3363;50.942;7.034;2022-11-25T16:30:46;10.00;99.90
6654;DHT22;3363;50.942;7.034;2022-11-25T16:33:13;10.00;99.90
6654;DHT22;3363;50.942;7.034;2022-11-25T16:35:40;9.90;99.90
6654;DHT22;3363;50.942;7.034;2022-11-25T16:38:06;9.80;99.90
6654;DHT22;3363;50.942;7.034;2022-11-25T16:40:34;9.80;99.90
6654;DHT22;3363;50.942;7.034;2022-11-25T16:43:02;9.80;99.90